sensor_id;sensor_type;location;lat;lon;timestamp;P1;durP1;ratioP1;P2;durP2;ratioP2
13872;SDS011;7006;51.494;11.964;2023-11-21T00:01:55;10.20;;;6.37;;
13872;SDS011;7006;51.494;11.964;2023-11-21T00:04:23;13.60;;;6.67;;
13872;SDS011;7006;51.494;11.964;2023-11-21T00:06:54;9.20;;;5.80;;
13872;SDS011;7006;51.494;11.964;2023-11-21T00:09:22;10.40;;;6.33;;
13872;SDS011;7006;51.494;11.964;2023-11-21T00:11:51;12.67;;;6.37;;
13872;SDS011;7006;51.494;11.964;2023-11-21T00:14:19;12.13;;;6.83;;
13872;SDS011;7006;51.494;11.964;2023-11-21T00:16:49;12.70;;;7.30;;
13872;SDS011;7006;51.494;11.964;2023-11-21T00:19:17;12.23;;;7.10;;
13872;SDS011;7006;51.494;11.964;2023-11-21T00:21:46;8.00;;;7.03;;
13872;SDS011;7006;51.494;11.964;2023-11-21T00:24:14;11.67;;;7.20;;
13872;SDS011;7006;51.494;11.964;2023-11-21T00:26:42;12.63;;;7.37;;
13872;SDS011;7006;51.494;11.964;2023-11-21T00:29:13;8.93;;;7.07;;
13872;SDS011;7006;51.494;11.964;2023-11-21T00:31:39;9.43;;;6.83;;
13872;SDS011;7006;51.494;11.964;2023-11-21T00:34:10;8.23;;;5.57;;
13872;SDS011;7006;51.494;11.964;2023-11-21T00:36:39;10.90;;;6.00;;
13872;SDS011;7006;51.494;11.964;2023-11-21T00:39:07;9.07;;;5.40;;
13872;SDS011;7006;51.494;11.964;2023-11-21T00:41:36;12.83;;;5.70;;
13872;SDS011;7006;51.494;11.964;2023-11-21T00:44:05;10.73;;;5.37;;
13872;SDS011;7006;51.494;11.964;2023-11-21T00:46:33;10.60;;;5.43;;
13872;SDS011;7006;51.494;11.964;2023-11-21T00:49:02;10.17;;;5.60;;
13872;SDS011;7006;51.494;11.964;2023-11-21T00:51:33;8.17;;;5.60;;
13872;SDS011;7006;51.494;11.964;2023-11-21T00:54:01;9.40;;;6.60;;
13872;SDS011;7006;51.494;11.964;2023-11-21T00:56:29;10.40;;;6.97;;
13872;SDS011;7006;51.494;11.964;2023-11-21T00:58:57;10.20;;;6.60;;
13872;SDS011;7006;51.494;11.964;2023-11-21T01:01:25;9.67;;;5.90;;
13872;SDS011;7006;51.494;11.964;2023-11-21T01:03:53;9.77;;;6.23;;
13872;SDS011;7006;51.494;11.964;2023-11-21T01:06:22;9.60;;;5.50;;
13872;SDS011;7006;51.494;11.964;2023-11-21T01:08:52;8.47;;;6.13;;
13872;SDS011;7006;51.494;11.964;2023-11-21T01:11:20;10.93;;;6.30;;
13872;SDS011;7006;51.494;11.964;2023-11-21T01:13:49;13.60;;;6.00;;
13872;SDS011;7006;51.494;11.964;2023-11-21T01:16:17;17.53;;;7.60;;
13872;SDS011;7006;51.494;11.964;2023-11-21T01:18:45;14.23;;;7.50;;
13872;SDS011;7006;51.494;11.964;2023-11-21T01:21:13;12.30;;;7.00;;
13872;SDS011;7006;51.494;11.964;2023-11-21T01:23:42;14.13;;;6.90;;
13872;SDS011;7006;51.494;11.964;2023-11-21T01:26:13;9.70;;;6.20;;
13872;SDS011;7006;51.494;11.964;2023-11-21T01:28:41;9.20;;;6.07;;
13872;SDS011;7006;51.494;11.964;2023-11-21T01:31:09;11.03;;;6.90;;
13872;SDS011;7006;51.494;11.964;2023-11-21T01:33:38;8.70;;;6.17;;
13872;SDS011;7006;51.494;11.964;2023-11-21T01:36:06;11.23;;;7.10;;
13872;SDS011;7006;51.494;11.964;2023-11-21T01:38:35;9.77;;;5.80;;
13872;SDS011;7006;51.494;11.964;2023-11-21T01:41:03;10.40;;;6.00;;
13872;SDS011;7006;51.494;11.964;2023-11-21T01:43:34;12.40;;;6.57;;
13872;SDS011;7006;51.494;11.964;2023-11-21T01:46:02;7.80;;;5.50;;
13872;SDS011;7006;51.494;11.964;2023-11-21T01:48:31;8.53;;;5.57;;
13872;SDS011;7006;51.494;11.964;2023-11-21T01:50:59;9.37;;;6.40;;
13872;SDS011;7006;51.494;11.964;2023-11-21T01:53:28;11.37;;;7.07;;
13872;SDS011;7006;51.494;11.964;2023-11-21T01:55:56;14.63;;;6.37;;
13872;SDS011;7006;51.494;11.964;2023-11-21T01:58:25;12.20;;;6.33;;
13872;SDS011;7006;51.494;11.964;2023-11-21T02:00:55;11.37;;;6.30;;
13872;SDS011;7006;51.494;11.964;2023-11-21T02:03:24;9.23;;;5.90;;
13872;SDS011;7006;51.494;11.964;2023-11-21T02:05:52;9.23;;;5.90;;
13872;SDS011;7006;51.494;11.964;2023-11-21T02:08:20;8.93;;;6.30;;
13872;SDS011;7006;51.494;11.964;2023-11-21T02:10:48;12.73;;;6.60;;
13872;SDS011;7006;51.494;11.964;2023-11-21T02:13:16;9.27;;;5.90;;
13872;SDS011;7006;51.494;11.964;2023-11-21T02:15:44;10.07;;;6.40;;
13872;SDS011;7006;51.494;11.964;2023-11-21T02:18:17;9.50;;;6.70;;
13872;SDS011;7006;51.494;11.964;2023-11-21T02:20:47;10.87;;;6.43;;
13872;SDS011;7006;51.494;11.964;2023-11-21T02:23:18;9.37;;;5.50;;
13872;SDS011;7006;51.494;11.964;2023-11-21T02:25:48;11.07;;;6.83;;
13872;SDS011;7006;51.494;11.964;2023-11-21T02:28:16;9.93;;;5.80;;
13872;SDS011;7006;51.494;11.964;2023-11-21T02:30:50;8.20;;;5.67;;
13872;SDS011;7006;51.494;11.964;2023-11-21T02:33:20;13.43;;;6.10;;
13872;SDS011;7006;51.494;11.964;2023-11-21T02:35:49;11.00;;;5.93;;
13872;SDS011;7006;51.494;11.964;2023-11-21T02:38:22;10.23;;;6.97;;
13872;SDS011;7006;51.494;11.964;2023-11-21T02:40:50;11.43;;;7.60;;
13872;SDS011;7006;51.494;11.964;2023-11-21T02:43:18;12.47;;;7.87;;
13872;SDS011;7006;51.494;11.964;2023-11-21T02:45:47;11.00;;;7.83;;
13872;SDS011;7006;51.494;11.964;2023-11-21T02:48:15;12.50;;;7.00;;
13872;SDS011;7006;51.494;11.964;2023-11-21T02:50:43;11.37;;;7.43;;
13872;SDS011;7006;51.494;11.964;2023-11-21T02:53:11;11.23;;;6.47;;
13872;SDS011;7006;51.494;11.964;2023-11-21T02:55:42;10.90;;;7.27;;
13872;SDS011;7006;51.494;11.964;2023-11-21T02:58:10;11.53;;;6.00;;
13872;SDS011;7006;51.494;11.964;2023-11-21T03:00:39;11.00;;;6.27;;
13872;SDS011;7006;51.494;11.964;2023-11-21T03:03:07;11.33;;;6.30;;
13872;SDS011;7006;51.494;11.964;2023-11-21T03:05:35;10.40;;;6.20;;
13872;SDS011;7006;51.494;11.964;2023-11-21T03:08:04;13.30;;;7.07;;
13872;SDS011;7006;51.494;11.964;2023-11-21T03:10:32;11.37;;;5.70;;
13872;SDS011;7006;51.494;11.964;2023-11-21T03:13:03;8.97;;;6.13;;
13872;SDS011;7006;51.494;11.964;2023-11-21T03:15:32;14.47;;;6.80;;
13872;SDS011;7006;51.494;11.964;2023-11-21T03:18:00;8.97;;;5.57;;
13872;SDS011;7006;51.494;11.964;2023-11-21T03:20:30;15.80;;;6.43;;
13872;SDS011;7006;51.494;11.964;2023-11-21T03:22:56;9.87;;;6.30;;
13872;SDS011;7006;51.494;11.964;2023-11-21T03:25:24;14.17;;;6.80;;
13872;SDS011;7006;51.494;11.964;2023-11-21T03:27:53;10.90;;;6.00;;
13872;SDS011;7006;51.494;11.964;2023-11-21T03:30:23;13.77;;;6.40;;
13872;SDS011;7006;51.494;11.964;2023-11-21T03:32:52;11.10;;;6.70;;
13872;SDS011;7006;51.494;11.964;2023-11-21T03:35:20;10.50;;;6.60;;
13872;SDS011;7006;51.494;11.964;2023-11-21T03:37:49;12.37;;;7.77;;
13872;SDS011;7006;51.494;11.964;2023-11-21T03:40:17;12.10;;;6.50;;
13872;SDS011;7006;51.494;11.964;2023-11-21T03:42:46;11.73;;;7.07;;
13872;SDS011;7006;51.494;11.964;2023-11-21T03:45:14;13.57;;;7.17;;
13872;SDS011;7006;51.494;11.964;2023-11-21T03:47:45;13.10;;;8.00;;
13872;SDS011;7006;51.494;11.964;2023-11-21T03:50:13;16.27;;;8.63;;
13872;SDS011;7006;51.494;11.964;2023-11-21T03:52:41;16.07;;;8.13;;
13872;SDS011;7006;51.494;11.964;2023-11-21T03:55:10;14.90;;;8.40;;
13872;SDS011;7006;51.494;11.964;2023-11-21T03:57:38;12.97;;;7.90;;
13872;SDS011;7006;51.494;11.964;2023-11-21T04:00:07;12.40;;;8.57;;
13872;SDS011;7006;51.494;11.964;2023-11-21T04:02:36;12.50;;;8.30;;
13872;SDS011;7006;51.494;11.964;2023-11-21T04:05:07;12.90;;;9.20;;
13872;SDS011;7006;51.494;11.964;2023-11-21T04:07:35;13.10;;;8.70;;
13872;SDS011;7006;51.494;11.964;2023-11-21T04:10:05;15.10;;;9.50;;
13872;SDS011;7006;51.494;11.964;2023-11-21T04:12:34;17.20;;;10.20;;
13872;SDS011;7006;51.494;11.964;2023-11-21T04:15:02;13.73;;;9.03;;
13872;SDS011;7006;51.494;11.964;2023-11-21T04:17:30;12.63;;;8.63;;
13872;SDS011;7006;51.494;11.964;2023-11-21T04:19:58;14.47;;;8.47;;
13872;SDS011;7006;51.494;11.964;2023-11-21T04:22:29;12.50;;;7.87;;
13872;SDS011;7006;51.494;11.964;2023-11-21T04:24:58;15.33;;;7.83;;
13872;SDS011;7006;51.494;11.964;2023-11-21T04:27:26;11.80;;;8.60;;
13872;SDS011;7006;51.494;11.964;2023-11-21T04:29:54;15.17;;;7.60;;
13872;SDS011;7006;51.494;11.964;2023-11-21T04:32:22;15.50;;;7.90;;
13872;SDS011;7006;51.494;11.964;2023-11-21T04:34:50;13.73;;;8.47;;
13872;SDS011;7006;51.494;11.964;2023-11-21T04:37:19;12.77;;;8.70;;
13872;SDS011;7006;51.494;11.964;2023-11-21T04:39:50;12.97;;;8.80;;
13872;SDS011;7006;51.494;11.964;2023-11-21T04:42:18;14.97;;;9.73;;
13872;SDS011;7006;51.494;11.964;2023-11-21T04:44:46;13.67;;;8.17;;
13872;SDS011;7006;51.494;11.964;2023-11-21T04:47:15;10.90;;;8.47;;
13872;SDS011;7006;51.494;11.964;2023-11-21T04:49:45;13.00;;;8.30;;
13872;SDS011;7006;51.494;11.964;2023-11-21T04:52:13;13.63;;;8.70;;
13872;SDS011;7006;51.494;11.964;2023-11-21T04:54:42;14.50;;;8.63;;
13872;SDS011;7006;51.494;11.964;2023-11-21T04:57:13;16.17;;;9.17;;
13872;SDS011;7006;51.494;11.964;2023-11-21T04:59:43;15.63;;;9.70;;
13872;SDS011;7006;51.494;11.964;2023-11-21T05:02:11;18.53;;;9.30;;
13872;SDS011;7006;51.494;11.964;2023-11-21T05:04:39;18.03;;;9.20;;
13872;SDS011;7006;51.494;11.964;2023-11-21T05:07:07;17.03;;;10.03;;
13872;SDS011;7006;51.494;11.964;2023-11-21T05:09:40;15.83;;;8.90;;
13872;SDS011;7006;51.494;11.964;2023-11-21T05:12:09;15.17;;;9.80;;
13872;SDS011;7006;51.494;11.964;2023-11-21T05:14:40;18.33;;;8.87;;
13872;SDS011;7006;51.494;11.964;2023-11-21T05:17:08;12.47;;;8.27;;
13872;SDS011;7006;51.494;11.964;2023-11-21T05:19:36;15.63;;;8.80;;
13872;SDS011;7006;51.494;11.964;2023-11-21T05:22:05;13.23;;;8.30;;
13872;SDS011;7006;51.494;11.964;2023-11-21T05:24:33;15.40;;;8.90;;
13872;SDS011;7006;51.494;11.964;2023-11-21T05:27:02;14.33;;;8.90;;
13872;SDS011;7006;51.494;11.964;2023-11-21T05:29:30;14.73;;;9.37;;
13872;SDS011;7006;51.494;11.964;2023-11-21T05:32:01;17.00;;;8.80;;
13872;SDS011;7006;51.494;11.964;2023-11-21T05:34:29;19.40;;;10.67;;
13872;SDS011;7006;51.494;11.964;2023-11-21T05:36:57;19.63;;;11.20;;
13872;SDS011;7006;51.494;11.964;2023-11-21T05:39:25;21.63;;;9.20;;
13872;SDS011;7006;51.494;11.964;2023-11-21T05:41:54;20.50;;;9.97;;
13872;SDS011;7006;51.494;11.964;2023-11-21T05:44:22;20.63;;;10.70;;
13872;SDS011;7006;51.494;11.964;2023-11-21T05:46:51;19.03;;;9.27;;
13872;SDS011;7006;51.494;11.964;2023-11-21T05:49:22;17.13;;;10.20;;
13872;SDS011;7006;51.494;11.964;2023-11-21T05:51:52;15.90;;;9.83;;
13872;SDS011;7006;51.494;11.964;2023-11-21T05:54:20;20.33;;;9.40;;
13872;SDS011;7006;51.494;11.964;2023-11-21T05:56:49;25.27;;;13.33;;
13872;SDS011;7006;51.494;11.964;2023-11-21T05:59:17;26.70;;;15.17;;
13872;SDS011;7006;51.494;11.964;2023-11-21T06:01:45;19.30;;;10.20;;
13872;SDS011;7006;51.494;11.964;2023-11-21T06:04:14;16.90;;;9.87;;
13872;SDS011;7006;51.494;11.964;2023-11-21T06:06:46;22.27;;;11.93;;
13872;SDS011;7006;51.494;11.964;2023-11-21T06:09:14;27.20;;;16.00;;
13872;SDS011;7006;51.494;11.964;2023-11-21T06:11:42;23.80;;;11.03;;
13872;SDS011;7006;51.494;11.964;2023-11-21T06:14:10;20.83;;;11.33;;
13872;SDS011;7006;51.494;11.964;2023-11-21T06:16:38;23.37;;;12.27;;
13872;SDS011;7006;51.494;11.964;2023-11-21T06:19:07;23.40;;;12.27;;
13872;SDS011;7006;51.494;11.964;2023-11-21T06:21:36;26.90;;;10.90;;
13872;SDS011;7006;51.494;11.964;2023-11-21T06:24:04;21.97;;;11.43;;
13872;SDS011;7006;51.494;11.964;2023-11-21T06:26:32;22.50;;;11.27;;
13872;SDS011;7006;51.494;11.964;2023-11-21T06:29:00;25.57;;;12.50;;
13872;SDS011;7006;51.494;11.964;2023-11-21T06:31:29;22.03;;;11.30;;
13872;SDS011;7006;51.494;11.964;2023-11-21T06:33:57;22.47;;;10.83;;
13872;SDS011;7006;51.494;11.964;2023-11-21T06:36:26;28.67;;;11.30;;
13872;SDS011;7006;51.494;11.964;2023-11-21T06:38:54;22.27;;;12.00;;
13872;SDS011;7006;51.494;11.964;2023-11-21T06:41:28;18.87;;;10.60;;
13872;SDS011;7006;51.494;11.964;2023-11-21T06:43:56;28.60;;;11.53;;
13872;SDS011;7006;51.494;11.964;2023-11-21T06:46:24;25.43;;;11.33;;
13872;SDS011;7006;51.494;11.964;2023-11-21T06:48:53;28.30;;;13.27;;
13872;SDS011;7006;51.494;11.964;2023-11-21T06:51:21;25.80;;;12.80;;
13872;SDS011;7006;51.494;11.964;2023-11-21T06:53:49;27.17;;;13.47;;
13872;SDS011;7006;51.494;11.964;2023-11-21T06:56:17;24.67;;;11.83;;
13872;SDS011;7006;51.494;11.964;2023-11-21T06:58:49;27.87;;;13.27;;
13872;SDS011;7006;51.494;11.964;2023-11-21T07:01:19;23.67;;;12.53;;
13872;SDS011;7006;51.494;11.964;2023-11-21T07:03:47;26.03;;;12.90;;
13872;SDS011;7006;51.494;11.964;2023-11-21T07:06:15;28.83;;;14.30;;
13872;SDS011;7006;51.494;11.964;2023-11-21T07:08:43;31.20;;;14.07;;
13872;SDS011;7006;51.494;11.964;2023-11-21T07:11:12;25.93;;;13.93;;
13872;SDS011;7006;51.494;11.964;2023-11-21T07:13:40;40.03;;;15.70;;
13872;SDS011;7006;51.494;11.964;2023-11-21T07:16:11;33.13;;;17.00;;
13872;SDS011;7006;51.494;11.964;2023-11-21T07:18:40;42.43;;;18.80;;
13872;SDS011;7006;51.494;11.964;2023-11-21T07:21:08;33.13;;;18.00;;
13872;SDS011;7006;51.494;11.964;2023-11-21T07:23:37;38.40;;;19.00;;
13872;SDS011;7006;51.494;11.964;2023-11-21T07:26:05;41.17;;;19.03;;
13872;SDS011;7006;51.494;11.964;2023-11-21T07:28:34;36.20;;;17.17;;
13872;SDS011;7006;51.494;11.964;2023-11-21T07:31:02;26.43;;;13.83;;
13872;SDS011;7006;51.494;11.964;2023-11-21T07:33:33;23.50;;;11.90;;
13872;SDS011;7006;51.494;11.964;2023-11-21T07:36:02;18.83;;;10.87;;
13872;SDS011;7006;51.494;11.964;2023-11-21T07:38:30;18.43;;;10.10;;
13872;SDS011;7006;51.494;11.964;2023-11-21T07:40:58;12.53;;;8.70;;
13872;SDS011;7006;51.494;11.964;2023-11-21T07:43:26;15.20;;;8.97;;
13872;SDS011;7006;51.494;11.964;2023-11-21T07:46:00;16.33;;;9.60;;
13872;SDS011;7006;51.494;11.964;2023-11-21T07:48:28;12.77;;;8.03;;
13872;SDS011;7006;51.494;11.964;2023-11-21T07:50:59;14.60;;;8.07;;
13872;SDS011;7006;51.494;11.964;2023-11-21T07:53:28;12.50;;;7.97;;
13872;SDS011;7006;51.494;11.964;2023-11-21T07:55:57;12.60;;;7.87;;
13872;SDS011;7006;51.494;11.964;2023-11-21T07:58:26;16.63;;;8.00;;
13872;SDS011;7006;51.494;11.964;2023-11-21T08:00:54;12.50;;;8.47;;
13872;SDS011;7006;51.494;11.964;2023-11-21T08:03:22;11.40;;;7.83;;
13872;SDS011;7006;51.494;11.964;2023-11-21T08:05:51;12.80;;;8.27;;
13872;SDS011;7006;51.494;11.964;2023-11-21T08:08:22;13.67;;;8.50;;
13872;SDS011;7006;51.494;11.964;2023-11-21T08:10:50;11.00;;;7.03;;
13872;SDS011;7006;51.494;11.964;2023-11-21T08:13:21;13.23;;;7.40;;
13872;SDS011;7006;51.494;11.964;2023-11-21T08:15:49;12.80;;;7.07;;
13872;SDS011;7006;51.494;11.964;2023-11-21T08:18:17;11.80;;;7.27;;
13872;SDS011;7006;51.494;11.964;2023-11-21T08:20:46;10.40;;;6.70;;
13872;SDS011;7006;51.494;11.964;2023-11-21T08:23:15;11.23;;;7.30;;
13872;SDS011;7006;51.494;11.964;2023-11-21T08:25:46;12.20;;;7.17;;
13872;SDS011;7006;51.494;11.964;2023-11-21T08:28:14;12.97;;;7.70;;
13872;SDS011;7006;51.494;11.964;2023-11-21T08:30:43;12.67;;;7.90;;
13872;SDS011;7006;51.494;11.964;2023-11-21T08:33:11;13.57;;;8.63;;
13872;SDS011;7006;51.494;11.964;2023-11-21T08:35:39;13.40;;;8.47;;
13872;SDS011;7006;51.494;11.964;2023-11-21T08:38:07;14.47;;;9.50;;
13872;SDS011;7006;51.494;11.964;2023-11-21T08:40:36;13.70;;;9.47;;
13872;SDS011;7006;51.494;11.964;2023-11-21T08:43:06;14.87;;;9.40;;
13872;SDS011;7006;51.494;11.964;2023-11-21T08:45:37;15.30;;;10.17;;
13872;SDS011;7006;51.494;11.964;2023-11-21T08:48:05;18.17;;;9.93;;
13872;SDS011;7006;51.494;11.964;2023-11-21T08:50:33;17.63;;;11.07;;
13872;SDS011;7006;51.494;11.964;2023-11-21T08:53:01;17.03;;;10.30;;
13872;SDS011;7006;51.494;11.964;2023-11-21T08:55:30;20.87;;;11.80;;
13872;SDS011;7006;51.494;11.964;2023-11-21T08:58:02;19.80;;;12.63;;
13872;SDS011;7006;51.494;11.964;2023-11-21T09:00:34;20.17;;;11.90;;
13872;SDS011;7006;51.494;11.964;2023-11-21T09:03:03;19.50;;;11.67;;
13872;SDS011;7006;51.494;11.964;2023-11-21T09:05:33;20.53;;;12.30;;
13872;SDS011;7006;51.494;11.964;2023-11-21T09:08:02;20.87;;;11.70;;
13872;SDS011;7006;51.494;11.964;2023-11-21T09:10:30;21.27;;;12.40;;
13872;SDS011;7006;51.494;11.964;2023-11-21T09:13:00;23.53;;;13.97;;
13872;SDS011;7006;51.494;11.964;2023-11-21T09:15:28;24.33;;;13.67;;
13872;SDS011;7006;51.494;11.964;2023-11-21T09:17:59;24.57;;;13.37;;
13872;SDS011;7006;51.494;11.964;2023-11-21T09:20:27;24.40;;;12.60;;
13872;SDS011;7006;51.494;11.964;2023-11-21T09:22:56;21.33;;;11.87;;
13872;SDS011;7006;51.494;11.964;2023-11-21T09:25:24;18.80;;;11.53;;
13872;SDS011;7006;51.494;11.964;2023-11-21T09:27:54;19.60;;;10.67;;
13872;SDS011;7006;51.494;11.964;2023-11-21T09:30:22;21.13;;;12.47;;
13872;SDS011;7006;51.494;11.964;2023-11-21T09:32:50;18.80;;;12.70;;
13872;SDS011;7006;51.494;11.964;2023-11-21T09:35:21;19.40;;;12.07;;
13872;SDS011;7006;51.494;11.964;2023-11-21T09:37:50;21.50;;;12.37;;
13872;SDS011;7006;51.494;11.964;2023-11-21T09:40:21;21.30;;;12.50;;
13872;SDS011;7006;51.494;11.964;2023-11-21T09:42:53;24.30;;;13.77;;
13872;SDS011;7006;51.494;11.964;2023-11-21T09:45:24;23.60;;;13.10;;
13872;SDS011;7006;51.494;11.964;2023-11-21T09:47:53;18.70;;;11.80;;
13872;SDS011;7006;51.494;11.964;2023-11-21T09:50:24;24.40;;;13.30;;
13872;SDS011;7006;51.494;11.964;2023-11-21T09:52:57;23.80;;;14.30;;
13872;SDS011;7006;51.494;11.964;2023-11-21T09:55:26;18.67;;;11.10;;
13872;SDS011;7006;51.494;11.964;2023-11-21T09:57:55;19.70;;;12.70;;
13872;SDS011;7006;51.494;11.964;2023-11-21T10:00:26;20.30;;;12.47;;
13872;SDS011;7006;51.494;11.964;2023-11-21T10:02:56;20.53;;;10.97;;
13872;SDS011;7006;51.494;11.964;2023-11-21T10:05:30;15.97;;;10.00;;
13872;SDS011;7006;51.494;11.964;2023-11-21T10:07:59;17.73;;;10.13;;
13872;SDS011;7006;51.494;11.964;2023-11-21T10:10:27;16.70;;;10.33;;
13872;SDS011;7006;51.494;11.964;2023-11-21T10:12:56;16.10;;;10.10;;
13872;SDS011;7006;51.494;11.964;2023-11-21T10:15:25;18.03;;;10.80;;
13872;SDS011;7006;51.494;11.964;2023-11-21T10:17:53;18.37;;;10.67;;
13872;SDS011;7006;51.494;11.964;2023-11-21T10:20:22;18.37;;;11.47;;
13872;SDS011;7006;51.494;11.964;2023-11-21T10:22:53;17.87;;;10.63;;
13872;SDS011;7006;51.494;11.964;2023-11-21T10:25:22;19.67;;;12.20;;
13872;SDS011;7006;51.494;11.964;2023-11-21T10:27:55;20.77;;;12.37;;
13872;SDS011;7006;51.494;11.964;2023-11-21T10:30:27;22.90;;;12.30;;
13872;SDS011;7006;51.494;11.964;2023-11-21T10:32:58;18.03;;;10.90;;
13872;SDS011;7006;51.494;11.964;2023-11-21T10:35:38;18.27;;;11.03;;
13872;SDS011;7006;51.494;11.964;2023-11-21T10:38:09;21.17;;;11.60;;
13872;SDS011;7006;51.494;11.964;2023-11-21T10:40:39;19.00;;;12.90;;
13872;SDS011;7006;51.494;11.964;2023-11-21T10:43:07;17.40;;;11.30;;
13872;SDS011;7006;51.494;11.964;2023-11-21T10:45:38;19.17;;;11.40;;
13872;SDS011;7006;51.494;11.964;2023-11-21T10:48:06;19.40;;;12.60;;
13872;SDS011;7006;51.494;11.964;2023-11-21T10:50:36;19.53;;;12.30;;
13872;SDS011;7006;51.494;11.964;2023-11-21T10:53:04;19.20;;;12.50;;
13872;SDS011;7006;51.494;11.964;2023-11-21T10:55:35;30.07;;;12.73;;
13872;SDS011;7006;51.494;11.964;2023-11-21T10:58:04;20.23;;;13.40;;
13872;SDS011;7006;51.494;11.964;2023-11-21T11:00:35;18.63;;;13.00;;
13872;SDS011;7006;51.494;11.964;2023-11-21T11:03:05;20.43;;;12.93;;
13872;SDS011;7006;51.494;11.964;2023-11-21T11:05:38;16.50;;;11.00;;
13872;SDS011;7006;51.494;11.964;2023-11-21T11:08:12;18.73;;;13.60;;
13872;SDS011;7006;51.494;11.964;2023-11-21T11:10:46;21.50;;;13.20;;
13872;SDS011;7006;51.494;11.964;2023-11-21T11:13:14;18.20;;;12.50;;
13872;SDS011;7006;51.494;11.964;2023-11-21T11:15:43;20.30;;;13.13;;
13872;SDS011;7006;51.494;11.964;2023-11-21T11:18:13;19.00;;;13.00;;
13872;SDS011;7006;51.494;11.964;2023-11-21T11:20:42;20.53;;;13.70;;
13872;SDS011;7006;51.494;11.964;2023-11-21T11:23:14;27.13;;;14.50;;
13872;SDS011;7006;51.494;11.964;2023-11-21T11:25:56;20.60;;;13.70;;
13872;SDS011;7006;51.494;11.964;2023-11-21T11:28:32;23.67;;;14.60;;
13872;SDS011;7006;51.494;11.964;2023-11-21T11:31:05;21.77;;;13.80;;
13872;SDS011;7006;51.494;11.964;2023-11-21T11:33:39;22.27;;;14.40;;
13872;SDS011;7006;51.494;11.964;2023-11-21T11:36:10;23.10;;;14.93;;
13872;SDS011;7006;51.494;11.964;2023-11-21T11:38:45;25.00;;;13.80;;
13872;SDS011;7006;51.494;11.964;2023-11-21T11:41:23;20.10;;;14.07;;
13872;SDS011;7006;51.494;11.964;2023-11-21T11:43:52;22.87;;;14.63;;
13872;SDS011;7006;51.494;11.964;2023-11-21T11:46:20;24.40;;;15.83;;
13872;SDS011;7006;51.494;11.964;2023-11-21T11:48:49;24.83;;;14.67;;
13872;SDS011;7006;51.494;11.964;2023-11-21T11:51:30;27.50;;;15.93;;
13872;SDS011;7006;51.494;11.964;2023-11-21T11:54:01;26.00;;;16.03;;
13872;SDS011;7006;51.494;11.964;2023-11-21T11:56:31;28.37;;;16.17;;
13872;SDS011;7006;51.494;11.964;2023-11-21T11:59:01;24.87;;;16.03;;
13872;SDS011;7006;51.494;11.964;2023-11-21T12:01:32;26.93;;;15.40;;
13872;SDS011;7006;51.494;11.964;2023-11-21T12:06:45;26.30;;;15.13;;
13872;SDS011;7006;51.494;11.964;2023-11-21T12:09:17;30.00;;;16.37;;
13872;SDS011;7006;51.494;11.964;2023-11-21T12:11:49;27.77;;;15.57;;
13872;SDS011;7006;51.494;11.964;2023-11-21T12:14:17;30.93;;;16.60;;
13872;SDS011;7006;51.494;11.964;2023-11-21T12:16:45;25.53;;;15.57;;
13872;SDS011;7006;51.494;11.964;2023-11-21T12:19:14;27.50;;;14.90;;
13872;SDS011;7006;51.494;11.964;2023-11-21T12:21:42;28.73;;;17.17;;
13872;SDS011;7006;51.494;11.964;2023-11-21T12:24:11;26.83;;;16.00;;
13872;SDS011;7006;51.494;11.964;2023-11-21T12:26:41;24.13;;;14.77;;
13872;SDS011;7006;51.494;11.964;2023-11-21T12:29:12;24.30;;;15.33;;
13872;SDS011;7006;51.494;11.964;2023-11-21T12:31:41;24.53;;;15.30;;
13872;SDS011;7006;51.494;11.964;2023-11-21T12:34:11;24.13;;;14.60;;
13872;SDS011;7006;51.494;11.964;2023-11-21T12:36:39;20.80;;;13.60;;
13872;SDS011;7006;51.494;11.964;2023-11-21T12:39:07;21.47;;;13.57;;
13872;SDS011;7006;51.494;11.964;2023-11-21T12:41:36;20.97;;;13.30;;
13872;SDS011;7006;51.494;11.964;2023-11-21T12:44:04;21.90;;;13.37;;
13872;SDS011;7006;51.494;11.964;2023-11-21T12:46:43;20.73;;;13.30;;
13872;SDS011;7006;51.494;11.964;2023-11-21T12:49:13;20.27;;;13.20;;
13872;SDS011;7006;51.494;11.964;2023-11-21T12:51:43;20.33;;;13.37;;
13872;SDS011;7006;51.494;11.964;2023-11-21T12:54:12;21.73;;;14.60;;
13872;SDS011;7006;51.494;11.964;2023-11-21T12:56:40;20.77;;;13.53;;
13872;SDS011;7006;51.494;11.964;2023-11-21T12:59:09;21.13;;;12.83;;
13872;SDS011;7006;51.494;11.964;2023-11-21T13:01:43;22.40;;;13.73;;
13872;SDS011;7006;51.494;11.964;2023-11-21T13:04:11;21.30;;;13.73;;
13872;SDS011;7006;51.494;11.964;2023-11-21T13:06:41;17.83;;;11.73;;
13872;SDS011;7006;51.494;11.964;2023-11-21T13:09:09;22.13;;;13.87;;
13872;SDS011;7006;51.494;11.964;2023-11-21T13:11:42;20.70;;;12.90;;
13872;SDS011;7006;51.494;11.964;2023-11-21T13:14:10;18.00;;;12.10;;
13872;SDS011;7006;51.494;11.964;2023-11-21T13:16:39;16.43;;;10.73;;
13872;SDS011;7006;51.494;11.964;2023-11-21T13:19:13;16.07;;;11.47;;
13872;SDS011;7006;51.494;11.964;2023-11-21T13:21:42;14.87;;;10.70;;
13872;SDS011;7006;51.494;11.964;2023-11-21T13:24:10;19.70;;;10.70;;
13872;SDS011;7006;51.494;11.964;2023-11-21T13:26:39;17.47;;;11.00;;
13872;SDS011;7006;51.494;11.964;2023-11-21T13:29:07;19.30;;;12.60;;
13872;SDS011;7006;51.494;11.964;2023-11-21T13:31:38;20.63;;;12.07;;
13872;SDS011;7006;51.494;11.964;2023-11-21T13:34:06;17.30;;;12.10;;
13872;SDS011;7006;51.494;11.964;2023-11-21T13:36:37;21.87;;;12.40;;
13872;SDS011;7006;51.494;11.964;2023-11-21T13:39:07;20.50;;;12.80;;
13872;SDS011;7006;51.494;11.964;2023-11-21T13:41:40;18.40;;;11.40;;
13872;SDS011;7006;51.494;11.964;2023-11-21T13:44:08;19.37;;;11.67;;
13872;SDS011;7006;51.494;11.964;2023-11-21T13:46:51;20.20;;;12.43;;
13872;SDS011;7006;51.494;11.964;2023-11-21T13:49:21;19.60;;;11.57;;
13872;SDS011;7006;51.494;11.964;2023-11-21T13:51:54;18.63;;;11.40;;
13872;SDS011;7006;51.494;11.964;2023-11-21T13:54:23;15.00;;;10.83;;
13872;SDS011;7006;51.494;11.964;2023-11-21T13:56:53;15.93;;;10.83;;
13872;SDS011;7006;51.494;11.964;2023-11-21T13:59:21;16.03;;;9.90;;
13872;SDS011;7006;51.494;11.964;2023-11-21T14:01:51;14.33;;;9.50;;
13872;SDS011;7006;51.494;11.964;2023-11-21T14:04:24;13.60;;;10.27;;
13872;SDS011;7006;51.494;11.964;2023-11-21T14:07:23;16.60;;;10.50;;
13872;SDS011;7006;51.494;11.964;2023-11-21T14:09:57;14.63;;;10.23;;
13872;SDS011;7006;51.494;11.964;2023-11-21T14:12:26;17.53;;;9.87;;
13872;SDS011;7006;51.494;11.964;2023-11-21T14:14:54;15.00;;;11.10;;
13872;SDS011;7006;51.494;11.964;2023-11-21T14:17:23;15.70;;;10.80;;
13872;SDS011;7006;51.494;11.964;2023-11-21T14:19:52;15.00;;;10.40;;
13872;SDS011;7006;51.494;11.964;2023-11-21T14:22:24;14.60;;;9.40;;
13872;SDS011;7006;51.494;11.964;2023-11-21T14:24:53;12.77;;;8.13;;
13872;SDS011;7006;51.494;11.964;2023-11-21T14:27:25;14.63;;;7.73;;
13872;SDS011;7006;51.494;11.964;2023-11-21T14:29:54;11.50;;;7.70;;
13872;SDS011;7006;51.494;11.964;2023-11-21T14:32:22;12.03;;;7.73;;
13872;SDS011;7006;51.494;11.964;2023-11-21T14:34:51;15.03;;;8.67;;
13872;SDS011;7006;51.494;11.964;2023-11-21T14:37:19;10.83;;;6.87;;
13872;SDS011;7006;51.494;11.964;2023-11-21T14:39:50;13.33;;;8.20;;
13872;SDS011;7006;51.494;11.964;2023-11-21T14:42:18;14.23;;;8.77;;
13872;SDS011;7006;51.494;11.964;2023-11-21T14:44:50;14.47;;;9.37;;